sensor_id;sensor_type;location;lat;lon;timestamp;temperature;humidity
15386;DHT22;7791;47.246;9.648;2022-11-11T00:00:15;6.20;99.90
15386;DHT22;7791;47.246;9.648;2022-11-11T00:02:41;6.20;99.90
15386;DHT22;7791;47.246;9.648;2022-11-11T00:05:08;6.20;99.90
15386;DHT22;7791;47.246;9.648;2022-11-11T00:07:34;6.20;99.90
15386;DHT22;7791;47.246;9.648;2022-11-11T00:09:59;6.30;99.90
15386;DHT22;7791;47.246;9.648;2022-11-11T00:12:25;6.20;99.90
15386;DHT22;7791;47.246;9.648;2022-11-11T00:14:51;6.30;99.90
15386;DHT22;7791;47.246;9.648;2022-11-11T00:17:16;6.40;99.90
15386;DHT22;7791;47.246;9.648;2022-11-11T00:19:42;6.50;99.90
15386;DHT22;7791;47.246;9.648;2022-11-11T00:22:19;6.60;99.90
15386;DHT22;7791;47.246;9.648;2022-11-11T00:24:45;6.60;99.90
15386;DHT22;7791;47.246;9.648;2022-11-11T00:27:11;6.60;99.90
15386;DHT22;7791;47.246;9.648;2022-11-11T00:29:38;6.60;99.90
15386;DHT22;7791;47.246;9.648;2022-11-11T00:32:04;6.70;99.90
15386;DHT22;7791;47.246;9.648;2022-11-11T00:34:30;6.80;99.90
15386;DHT22;7791;47.246;9.648;2022-11-11T00:36:55;6.70;99.90
15386;DHT22;7791;47.246;9.648;2022-11-11T00:39:22;6.80;99.90
15386;DHT22;7791;47.246;9.648;2022-11-11T00:41:48;6.80;99.90
15386;DHT22;7791;47.246;9.648;2022-11-11T00:44:14;6.80;99.90
15386;DHT22;7791;47.246;9.648;2022-11-11T00:46:39;6.70;99.90
15386;DHT22;7791;47.246;9.648;2022-11-11T00:49:06;6.70;99.90
15386;DHT22;7791;47.246;9.648;2022-11-11T00:51:31;6.80;99.90
15386;DHT22;7791;47.246;9.648;2022-11-11T00:53:57;6.80;99.90
15386;DHT22;7791;47.246;9.648;2022-11-11T00:56:24;6.80;99.90
15386;DHT22;7791;47.246;9.648;2022-11-11T00:58:51;6.70;99.90
15386;DHT22;7791;47.246;9.648;2022-11-11T01:01:17;6.70;99.90
15386;DHT22;7791;47.246;9.648;2022-11-11T01:03:42;6.60;99.90
15386;DHT22;7791;47.246;9.648;2022-11-11T01:06:09;6.50;99.90
15386;DHT22;7791;47.246;9.648;2022-11-11T01:08:35;6.40;99.90
15386;DHT22;7791;47.246;9.648;2022-11-11T01:11:01;6.30;99.90
15386;DHT22;7791;47.246;9.648;2022-11-11T01:13:29;6.30;99.90
15386;DHT22;7791;47.246;9.648;2022-11-11T01:15:59;6.30;99.90
15386;DHT22;7791;47.246;9.648;2022-11-11T01:18:25;6.30;99.90
15386;DHT22;7791;47.246;9.648;2022-11-11T01:20:58;6.40;99.90
15386;DHT22;7791;47.246;9.648;2022-11-11T01:23:24;6.40;99.90
15386;DHT22;7791;47.246;9.648;2022-11-11T01:25:50;6.40;99.90
15386;DHT22;7791;47.246;9.648;2022-11-11T01:28:16;6.40;99.90
15386;DHT22;7791;47.246;9.648;2022-11-11T01:30:43;6.40;99.90
15386;DHT22;7791;47.246;9.648;2022-11-11T01:33:09;6.30;99.90
15386;DHT22;7791;47.246;9.648;2022-11-11T01:35:37;6.30;99.90
15386;DHT22;7791;47.246;9.648;2022-11-11T01:38:03;6.40;99.90
15386;DHT22;7791;47.246;9.648;2022-11-11T01:40:29;6.40;99.90
15386;DHT22;7791;47.246;9.648;2022-11-11T01:43:16;6.40;99.90
15386;DHT22;7791;47.246;9.648;2022-11-11T01:45:50;6.50;99.90
15386;DHT22;7791;47.246;9.648;2022-11-11T01:48:20;6.50;99.90
15386;DHT22;7791;47.246;9.648;2022-11-11T01:50:46;6.50;99.90
15386;DHT22;7791;47.246;9.648;2022-11-11T01:53:12;6.50;99.90
15386;DHT22;7791;47.246;9.648;2022-11-11T01:55:38;6.50;99.90
15386;DHT22;7791;47.246;9.648;2022-11-11T01:58:05;6.50;99.90
15386;DHT22;7791;47.246;9.648;2022-11-11T02:00:33;6.50;99.90
15386;DHT22;7791;47.246;9.648;2022-11-11T02:03:04;6.60;99.90
15386;DHT22;7791;47.246;9.648;2022-11-11T02:05:31;6.60;99.90
15386;DHT22;7791;47.246;9.648;2022-11-11T02:08:00;6.50;99.90
15386;DHT22;7791;47.246;9.648;2022-11-11T02:10:28;6.30;99.90
15386;DHT22;7791;47.246;9.648;2022-11-11T02:12:54;6.20;99.90
15386;DHT22;7791;47.246;9.648;2022-11-11T02:15:20;6.10;99.90
15386;DHT22;7791;47.246;9.648;2022-11-11T02:17:47;6.00;99.90
15386;DHT22;7791;47.246;9.648;2022-11-11T02:20:18;5.90;99.90
15386;DHT22;7791;47.246;9.648;2022-11-11T02:22:50;5.80;99.90
15386;DHT22;7791;47.246;9.648;2022-11-11T02:25:20;5.80;99.90
15386;DHT22;7791;47.246;9.648;2022-11-11T02:27:49;5.80;99.90
15386;DHT22;7791;47.246;9.648;2022-11-11T02:30:15;5.70;99.90
15386;DHT22;7791;47.246;9.648;2022-11-11T02:32:43;5.60;99.90
15386;DHT22;7791;47.246;9.648;2022-11-11T02:35:13;5.40;99.90
15386;DHT22;7791;47.246;9.648;2022-11-11T02:37:41;5.20;99.90
15386;DHT22;7791;47.246;9.648;2022-11-11T02:40:08;5.00;99.90
15386;DHT22;7791;47.246;9.648;2022-11-11T02:42:36;4.90;99.90
15386;DHT22;7791;47.246;9.648;2022-11-11T02:45:02;5.00;99.90
15386;DHT22;7791;47.246;9.648;2022-11-11T02:47:28;5.20;99.90
15386;DHT22;7791;47.246;9.648;2022-11-11T02:49:53;4.90;99.90
15386;DHT22;7791;47.246;9.648;2022-11-11T02:52:19;4.80;99.90
15386;DHT22;7791;47.246;9.648;2022-11-11T02:54:45;4.80;99.90
15386;DHT22;7791;47.246;9.648;2022-11-11T02:57:10;4.70;99.90
15386;DHT22;7791;47.246;9.648;2022-11-11T02:59:38;4.60;99.90
15386;DHT22;7791;47.246;9.648;2022-11-11T03:02:05;4.60;99.90
15386;DHT22;7791;47.246;9.648;2022-11-11T03:04:31;4.50;99.90
15386;DHT22;7791;47.246;9.648;2022-11-11T03:06:57;4.50;99.90
15386;DHT22;7791;47.246;9.648;2022-11-11T03:09:23;4.40;99.90
15386;DHT22;7791;47.246;9.648;2022-11-11T03:11:48;4.40;99.90
15386;DHT22;7791;47.246;9.648;2022-11-11T03:14:14;4.20;99.90
15386;DHT22;7791;47.246;9.648;2022-11-11T03:16:41;4.10;99.90
15386;DHT22;7791;47.246;9.648;2022-11-11T03:19:07;4.00;99.90
15386;DHT22;7791;47.246;9.648;2022-11-11T03:21:33;3.90;99.90
15386;DHT22;7791;47.246;9.648;2022-11-11T03:23:58;3.80;99.90
15386;DHT22;7791;47.246;9.648;2022-11-11T03:26:24;3.70;99.90
15386;DHT22;7791;47.246;9.648;2022-11-11T03:28:50;3.60;99.90
15386;DHT22;7791;47.246;9.648;2022-11-11T03:31:16;3.60;99.90
15386;DHT22;7791;47.246;9.648;2022-11-11T03:33:43;3.60;99.90
15386;DHT22;7791;47.246;9.648;2022-11-11T03:36:09;3.60;99.90
15386;DHT22;7791;47.246;9.648;2022-11-11T03:38:34;3.60;99.90
15386;DHT22;7791;47.246;9.648;2022-11-11T03:41:00;3.60;99.90
15386;DHT22;7791;47.246;9.648;2022-11-11T03:43:27;3.60;99.90
15386;DHT22;7791;47.246;9.648;2022-11-11T03:45:55;3.60;99.90
15386;DHT22;7791;47.246;9.648;2022-11-11T03:48:20;3.70;99.90
15386;DHT22;7791;47.246;9.648;2022-11-11T03:50:48;3.70;99.90
15386;DHT22;7791;47.246;9.648;2022-11-11T03:53:14;3.60;99.90
15386;DHT22;7791;47.246;9.648;2022-11-11T03:55:40;3.50;99.90
15386;DHT22;7791;47.246;9.648;2022-11-11T03:58:06;3.50;99.90
15386;DHT22;7791;47.246;9.648;2022-11-11T04:00:32;3.40;99.90
15386;DHT22;7791;47.246;9.648;2022-11-11T04:03:02;3.20;99.90
15386;DHT22;7791;47.246;9.648;2022-11-11T04:05:28;3.10;99.90
15386;DHT22;7791;47.246;9.648;2022-11-11T04:07:55;3.10;99.90
15386;DHT22;7791;47.246;9.648;2022-11-11T04:10:20;3.00;99.90
15386;DHT22;7791;47.246;9.648;2022-11-11T04:12:46;3.00;99.90
15386;DHT22;7791;47.246;9.648;2022-11-11T04:15:12;3.00;99.90
15386;DHT22;7791;47.246;9.648;2022-11-11T04:17:37;2.90;99.90
15386;DHT22;7791;47.246;9.648;2022-11-11T04:20:04;2.80;99.90
15386;DHT22;7791;47.246;9.648;2022-11-11T04:22:29;2.80;99.90
15386;DHT22;7791;47.246;9.648;2022-11-11T04:24:56;2.80;99.90
15386;DHT22;7791;47.246;9.648;2022-11-11T04:27:22;2.70;99.90
15386;DHT22;7791;47.246;9.648;2022-11-11T04:29:48;2.70;99.90
15386;DHT22;7791;47.246;9.648;2022-11-11T04:32:15;2.80;99.90
15386;DHT22;7791;47.246;9.648;2022-11-11T04:34:41;2.80;99.90
15386;DHT22;7791;47.246;9.648;2022-11-11T04:37:07;2.80;99.90
15386;DHT22;7791;47.246;9.648;2022-11-11T04:39:33;2.80;99.90
15386;DHT22;7791;47.246;9.648;2022-11-11T04:42:00;2.80;99.90
15386;DHT22;7791;47.246;9.648;2022-11-11T04:44:25;2.70;99.90
15386;DHT22;7791;47.246;9.648;2022-11-11T04:46:51;2.70;99.90
15386;DHT22;7791;47.246;9.648;2022-11-11T04:49:17;2.70;99.90
15386;DHT22;7791;47.246;9.648;2022-11-11T04:51:43;2.60;99.90
15386;DHT22;7791;47.246;9.648;2022-11-11T04:54:08;2.60;99.90
15386;DHT22;7791;47.246;9.648;2022-11-11T04:56:34;2.60;99.90
15386;DHT22;7791;47.246;9.648;2022-11-11T04:59:01;2.60;99.90
15386;DHT22;7791;47.246;9.648;2022-11-11T05:01:27;2.60;99.90
15386;DHT22;7791;47.246;9.648;2022-11-11T05:03:52;2.50;99.90
15386;DHT22;7791;47.246;9.648;2022-11-11T05:06:18;2.50;99.90
15386;DHT22;7791;47.246;9.648;2022-11-11T05:08:45;2.40;99.90
15386;DHT22;7791;47.246;9.648;2022-11-11T05:11:11;2.40;99.90
15386;DHT22;7791;47.246;9.648;2022-11-11T05:13:37;2.40;99.90
15386;DHT22;7791;47.246;9.648;2022-11-11T05:16:04;2.50;99.90
15386;DHT22;7791;47.246;9.648;2022-11-11T05:18:30;2.50;99.90
15386;DHT22;7791;47.246;9.648;2022-11-11T05:20:56;2.50;99.90
15386;DHT22;7791;47.246;9.648;2022-11-11T05:23:22;2.40;99.90
15386;DHT22;7791;47.246;9.648;2022-11-11T05:25:47;2.30;99.90
15386;DHT22;7791;47.246;9.648;2022-11-11T05:28:13;2.20;99.90
15386;DHT22;7791;47.246;9.648;2022-11-11T05:30:39;2.30;99.90
15386;DHT22;7791;47.246;9.648;2022-11-11T05:33:06;2.30;99.90
15386;DHT22;7791;47.246;9.648;2022-11-11T05:35:31;2.30;99.90
15386;DHT22;7791;47.246;9.648;2022-11-11T05:38:01;2.30;99.90
15386;DHT22;7791;47.246;9.648;2022-11-11T05:40:26;2.20;99.90
15386;DHT22;7791;47.246;9.648;2022-11-11T05:42:52;2.20;99.90
15386;DHT22;7791;47.246;9.648;2022-11-11T05:45:18;2.10;99.90
15386;DHT22;7791;47.246;9.648;2022-11-11T05:47:43;2.00;99.90
15386;DHT22;7791;47.246;9.648;2022-11-11T05:50:11;2.00;99.90
15386;DHT22;7791;47.246;9.648;2022-11-11T05:52:36;2.10;99.90
15386;DHT22;7791;47.246;9.648;2022-11-11T05:55:02;2.10;99.90
15386;DHT22;7791;47.246;9.648;2022-11-11T05:57:28;2.10;99.90
15386;DHT22;7791;47.246;9.648;2022-11-11T05:59:53;2.20;99.90
15386;DHT22;7791;47.246;9.648;2022-11-11T06:02:19;2.10;99.90
15386;DHT22;7791;47.246;9.648;2022-11-11T06:04:45;2.10;99.90
15386;DHT22;7791;47.246;9.648;2022-11-11T06:07:12;2.00;99.90
15386;DHT22;7791;47.246;9.648;2022-11-11T06:09:50;2.00;99.90
15386;DHT22;7791;47.246;9.648;2022-11-11T06:12:15;2.00;99.90
15386;DHT22;7791;47.246;9.648;2022-11-11T06:14:41;2.00;99.90
15386;DHT22;7791;47.246;9.648;2022-11-11T06:17:07;2.00;99.90
15386;DHT22;7791;47.246;9.648;2022-11-11T06:19:34;2.00;99.90
15386;DHT22;7791;47.246;9.648;2022-11-11T06:22:03;2.00;99.90
15386;DHT22;7791;47.246;9.648;2022-11-11T06:24:35;2.00;99.90
15386;DHT22;7791;47.246;9.648;2022-11-11T06:27:01;2.10;99.90
15386;DHT22;7791;47.246;9.648;2022-11-11T06:29:26;2.10;99.90
15386;DHT22;7791;47.246;9.648;2022-11-11T06:31:52;2.10;99.90
15386;DHT22;7791;47.246;9.648;2022-11-11T06:34:18;2.10;99.90
15386;DHT22;7791;47.246;9.648;2022-11-11T06:36:44;2.10;99.90
15386;DHT22;7791;47.246;9.648;2022-11-11T06:39:09;2.20;99.90
15386;DHT22;7791;47.246;9.648;2022-11-11T06:41:36;2.40;99.90
15386;DHT22;7791;47.246;9.648;2022-11-11T06:44:02;2.50;99.90
15386;DHT22;7791;47.246;9.648;2022-11-11T06:46:28;2.60;99.90
15386;DHT22;7791;47.246;9.648;2022-11-11T06:48:53;2.70;99.90
15386;DHT22;7791;47.246;9.648;2022-11-11T06:51:19;2.80;99.90
15386;DHT22;7791;47.246;9.648;2022-11-11T06:53:45;2.80;99.90
15386;DHT22;7791;47.246;9.648;2022-11-11T06:56:11;2.90;99.90
15386;DHT22;7791;47.246;9.648;2022-11-11T06:58:38;2.90;99.90
15386;DHT22;7791;47.246;9.648;2022-11-11T07:01:05;2.90;99.90
15386;DHT22;7791;47.246;9.648;2022-11-11T07:03:31;3.00;99.90
15386;DHT22;7791;47.246;9.648;2022-11-11T07:05:59;3.00;99.90
15386;DHT22;7791;47.246;9.648;2022-11-11T07:08:25;3.00;99.90
15386;DHT22;7791;47.246;9.648;2022-11-11T07:10:51;3.00;99.90
15386;DHT22;7791;47.246;9.648;2022-11-11T07:13:16;3.00;99.90
15386;DHT22;7791;47.246;9.648;2022-11-11T07:15:44;3.10;99.90
15386;DHT22;7791;47.246;9.648;2022-11-11T07:18:10;3.10;99.90
15386;DHT22;7791;47.246;9.648;2022-11-11T07:20:37;3.10;99.90
15386;DHT22;7791;47.246;9.648;2022-11-11T07:23:03;3.20;99.90
15386;DHT22;7791;47.246;9.648;2022-11-11T07:25:29;3.20;99.90
15386;DHT22;7791;47.246;9.648;2022-11-11T07:27:54;3.30;99.90
15386;DHT22;7791;47.246;9.648;2022-11-11T07:30:20;3.40;99.90
15386;DHT22;7791;47.246;9.648;2022-11-11T07:32:49;3.70;99.90
15386;DHT22;7791;47.246;9.648;2022-11-11T07:35:16;4.20;99.90
15386;DHT22;7791;47.246;9.648;2022-11-11T07:37:42;4.60;99.90
15386;DHT22;7791;47.246;9.648;2022-11-11T07:40:09;5.40;99.90
15386;DHT22;7791;47.246;9.648;2022-11-11T07:42:35;6.20;99.90
15386;DHT22;7791;47.246;9.648;2022-11-11T07:45:01;7.40;99.90
15386;DHT22;7791;47.246;9.648;2022-11-11T07:47:27;8.40;99.90
15386;DHT22;7791;47.246;9.648;2022-11-11T07:49:54;9.30;99.90
15386;DHT22;7791;47.246;9.648;2022-11-11T07:52:20;10.10;99.90
15386;DHT22;7791;47.246;9.648;2022-11-11T07:54:48;10.40;99.90
15386;DHT22;7791;47.246;9.648;2022-11-11T07:57:14;10.80;99.90
15386;DHT22;7791;47.246;9.648;2022-11-11T07:59:40;11.10;99.90
15386;DHT22;7791;47.246;9.648;2022-11-11T08:02:07;11.30;99.90
15386;DHT22;7791;47.246;9.648;2022-11-11T08:04:33;11.60;99.90
15386;DHT22;7791;47.246;9.648;2022-11-11T08:07:00;12.00;99.90
15386;DHT22;7791;47.246;9.648;2022-11-11T08:09:25;12.40;99.90
15386;DHT22;7791;47.246;9.648;2022-11-11T08:11:51;12.60;99.90
15386;DHT22;7791;47.246;9.648;2022-11-11T08:14:17;12.70;99.90
15386;DHT22;7791;47.246;9.648;2022-11-11T08:16:42;12.60;99.90
15386;DHT22;7791;47.246;9.648;2022-11-11T08:19:08;12.50;99.90
15386;DHT22;7791;47.246;9.648;2022-11-11T08:21:34;12.60;99.90
15386;DHT22;7791;47.246;9.648;2022-11-11T08:24:01;12.90;99.90
15386;DHT22;7791;47.246;9.648;2022-11-11T08:26:26;13.10;99.90
15386;DHT22;7791;47.246;9.648;2022-11-11T08:28:52;13.10;99.90
15386;DHT22;7791;47.246;9.648;2022-11-11T08:31:18;13.00;99.90
15386;DHT22;7791;47.246;9.648;2022-11-11T08:33:44;12.90;99.90
15386;DHT22;7791;47.246;9.648;2022-11-11T08:36:10;12.90;99.90
15386;DHT22;7791;47.246;9.648;2022-11-11T08:38:36;13.20;99.90
15386;DHT22;7791;47.246;9.648;2022-11-11T08:41:04;13.50;99.90
15386;DHT22;7791;47.246;9.648;2022-11-11T08:43:31;13.60;99.90
15386;DHT22;7791;47.246;9.648;2022-11-11T08:45:57;13.30;99.90
15386;DHT22;7791;47.246;9.648;2022-11-11T08:48:23;13.20;99.90
15386;DHT22;7791;47.246;9.648;2022-11-11T08:50:51;13.30;99.90
15386;DHT22;7791;47.246;9.648;2022-11-11T08:53:17;13.20;99.90
15386;DHT22;7791;47.246;9.648;2022-11-11T08:55:43;13.00;99.90
15386;DHT22;7791;47.246;9.648;2022-11-11T08:58:11;12.50;99.90
15386;DHT22;7791;47.246;9.648;2022-11-11T09:00:37;12.20;99.90
15386;DHT22;7791;47.246;9.648;2022-11-11T09:03:05;11.80;99.90
15386;DHT22;7791;47.246;9.648;2022-11-11T09:05:31;11.60;99.90
15386;DHT22;7791;47.246;9.648;2022-11-11T09:07:59;11.70;99.90
15386;DHT22;7791;47.246;9.648;2022-11-11T09:10:25;12.00;99.90
15386;DHT22;7791;47.246;9.648;2022-11-11T09:12:55;12.00;99.90
15386;DHT22;7791;47.246;9.648;2022-11-11T09:15:22;12.00;99.90
15386;DHT22;7791;47.246;9.648;2022-11-11T09:17:48;12.20;99.90
15386;DHT22;7791;47.246;9.648;2022-11-11T09:20:14;12.30;99.90
15386;DHT22;7791;47.246;9.648;2022-11-11T09:22:41;12.50;99.90
15386;DHT22;7791;47.246;9.648;2022-11-11T09:25:07;12.80;99.90
15386;DHT22;7791;47.246;9.648;2022-11-11T09:27:33;12.90;99.90
15386;DHT22;7791;47.246;9.648;2022-11-11T09:29:58;13.10;99.90
15386;DHT22;7791;47.246;9.648;2022-11-11T09:32:26;13.30;99.90
15386;DHT22;7791;47.246;9.648;2022-11-11T09:34:51;13.30;99.90
15386;DHT22;7791;47.246;9.648;2022-11-11T09:37:17;13.50;99.90
15386;DHT22;7791;47.246;9.648;2022-11-11T09:39:43;13.70;99.90
15386;DHT22;7791;47.246;9.648;2022-11-11T09:42:13;13.90;99.90
15386;DHT22;7791;47.246;9.648;2022-11-11T09:44:59;13.90;99.90
15386;DHT22;7791;47.246;9.648;2022-11-11T09:47:34;13.70;99.90
15386;DHT22;7791;47.246;9.648;2022-11-11T09:50:07;13.70;99.90
15386;DHT22;7791;47.246;9.648;2022-11-11T09:52:39;13.90;99.90
15386;DHT22;7791;47.246;9.648;2022-11-11T09:55:14;14.00;99.90
15386;DHT22;7791;47.246;9.648;2022-11-11T09:57:44;14.10;99.90
15386;DHT22;7791;47.246;9.648;2022-11-11T10:00:16;14.00;99.90
15386;DHT22;7791;47.246;9.648;2022-11-11T10:02:48;14.20;99.90
15386;DHT22;7791;47.246;9.648;2022-11-11T10:05:18;14.10;99.90
15386;DHT22;7791;47.246;9.648;2022-11-11T10:07:47;14.10;99.90
15386;DHT22;7791;47.246;9.648;2022-11-11T10:10:20;14.20;99.90
15386;DHT22;7791;47.246;9.648;2022-11-11T10:12:52;14.50;99.90
15386;DHT22;7791;47.246;9.648;2022-11-11T10:15:21;15.00;99.90
15386;DHT22;7791;47.246;9.648;2022-11-11T10:18:01;15.20;99.90
15386;DHT22;7791;47.246;9.648;2022-11-11T10:20:31;15.50;99.90
15386;DHT22;7791;47.246;9.648;2022-11-11T10:23:02;15.90;99.90
15386;DHT22;7791;47.246;9.648;2022-11-11T10:25:29;16.20;99.90
15386;DHT22;7791;47.246;9.648;2022-11-11T10:27:57;16.80;99.90
15386;DHT22;7791;47.246;9.648;2022-11-11T10:30:25;17.30;99.90
15386;DHT22;7791;47.246;9.648;2022-11-11T10:32:56;17.80;99.90
15386;DHT22;7791;47.246;9.648;2022-11-11T10:35:24;18.30;99.90
15386;DHT22;7791;47.246;9.648;2022-11-11T10:37:58;18.20;99.90
15386;DHT22;7791;47.246;9.648;2022-11-11T10:40:29;17.70;99.90
15386;DHT22;7791;47.246;9.648;2022-11-11T10:42:57;17.60;99.90
15386;DHT22;7791;47.246;9.648;2022-11-11T10:45:26;18.00;99.90
15386;DHT22;7791;47.246;9.648;2022-11-11T10:47:59;18.30;99.90
15386;DHT22;7791;47.246;9.648;2022-11-11T10:50:28;18.00;99.90
15386;DHT22;7791;47.246;9.648;2022-11-11T10:52:59;17.40;99.90
15386;DHT22;7791;47.246;9.648;2022-11-11T10:55:29;17.60;99.90
15386;DHT22;7791;47.246;9.648;2022-11-11T10:57:59;18.10;99.90
15386;DHT22;7791;47.246;9.648;2022-11-11T11:00:25;18.40;99.90
15386;DHT22;7791;47.246;9.648;2022-11-11T11:02:56;18.00;99.90
15386;DHT22;7791;47.246;9.648;2022-11-11T11:05:26;16.40;99.90
15386;DHT22;7791;47.246;9.648;2022-11-11T11:07:57;15.40;99.90
15386;DHT22;7791;47.246;9.648;2022-11-11T11:10:28;14.50;99.90
15386;DHT22;7791;47.246;9.648;2022-11-11T11:13:02;14.40;99.90
15386;DHT22;7791;47.246;9.648;2022-11-11T11:15:30;14.40;99.90
15386;DHT22;7791;47.246;9.648;2022-11-11T11:18:03;14.20;99.90
15386;DHT22;7791;47.246;9.648;2022-11-11T11:20:29;14.20;99.90
15386;DHT22;7791;47.246;9.648;2022-11-11T11:22:56;14.20;99.90
15386;DHT22;7791;47.246;9.648;2022-11-11T11:25:23;14.10;99.90
15386;DHT22;7791;47.246;9.648;2022-11-11T11:27:50;14.20;99.90
15386;DHT22;7791;47.246;9.648;2022-11-11T11:30:18;13.90;99.90
15386;DHT22;7791;47.246;9.648;2022-11-11T11:32:55;13.70;99.90
15386;DHT22;7791;47.246;9.648;2022-11-11T11:35:35;13.40;99.90
15386;DHT22;7791;47.246;9.648;2022-11-11T11:38:02;13.30;99.90
15386;DHT22;7791;47.246;9.648;2022-11-11T11:40:44;13.30;99.90
15386;DHT22;7791;47.246;9.648;2022-11-11T11:43:31;13.50;99.90
15386;DHT22;7791;47.246;9.648;2022-11-11T11:45:58;13.50;99.90
15386;DHT22;7791;47.246;9.648;2022-11-11T11:48:34;13.30;99.90
15386;DHT22;7791;47.246;9.648;2022-11-11T11:51:19;13.30;99.90
15386;DHT22;7791;47.246;9.648;2022-11-11T11:53:56;13.40;99.90
15386;DHT22;7791;47.246;9.648;2022-11-11T11:56:33;13.40;99.90
15386;DHT22;7791;47.246;9.648;2022-11-11T12:05:10;13.40;99.90
15386;DHT22;7791;47.246;9.648;2022-11-11T12:08:02;13.40;99.90
15386;DHT22;7791;47.246;9.648;2022-11-11T12:10:38;13.30;99.90
15386;DHT22;7791;47.246;9.648;2022-11-11T12:13:15;13.40;99.90
15386;DHT22;7791;47.246;9.648;2022-11-11T12:15:50;13.20;99.90
15386;DHT22;7791;47.246;9.648;2022-11-11T12:18:38;13.30;99.90
15386;DHT22;7791;47.246;9.648;2022-11-11T12:21:08;13.50;99.90
15386;DHT22;7791;47.246;9.648;2022-11-11T12:23:55;13.50;99.90
15386;DHT22;7791;47.246;9.648;2022-11-11T12:26:27;13.40;99.90
15386;DHT22;7791;47.246;9.648;2022-11-11T12:29:21;13.40;99.90
15386;DHT22;7791;47.246;9.648;2022-11-11T12:32:01;13.30;99.90
15386;DHT22;7791;47.246;9.648;2022-11-11T12:34:54;13.00;99.90
15386;DHT22;7791;47.246;9.648;2022-11-11T12:37:31;12.70;99.90
15386;DHT22;7791;47.246;9.648;2022-11-11T12:40:14;12.70;99.90
15386;DHT22;7791;47.246;9.648;2022-11-11T12:42:54;12.60;99.90
15386;DHT22;7791;47.246;9.648;2022-11-11T12:45:23;12.70;99.90
15386;DHT22;7791;47.246;9.648;2022-11-11T12:47:57;12.90;99.90
15386;DHT22;7791;47.246;9.648;2022-11-11T12:50:33;13.10;99.90
15386;DHT22;7791;47.246;9.648;2022-11-11T12:53:11;13.50;99.90
15386;DHT22;7791;47.246;9.648;2022-11-11T12:55:56;13.60;99.90
15386;DHT22;7791;47.246;9.648;2022-11-11T12:58:29;13.80;99.90
15386;DHT22;7791;47.246;9.648;2022-11-11T13:01:10;14.00;99.90
15386;DHT22;7791;47.246;9.648;2022-11-11T13:03:50;14.00;99.90
15386;DHT22;7791;47.246;9.648;2022-11-11T13:06:31;14.10;99.90
15386;DHT22;7791;47.246;9.648;2022-11-11T13:09:15;14.20;99.90
15386;DHT22;7791;47.246;9.648;2022-11-11T13:11:49;14.20;99.90
15386;DHT22;7791;47.246;9.648;2022-11-11T13:17:13;13.90;99.90
15386;DHT22;7791;47.246;9.648;2022-11-11T13:19:43;13.80;99.90
15386;DHT22;7791;47.246;9.648;2022-11-11T13:22:16;13.90;99.90
15386;DHT22;7791;47.246;9.648;2022-11-11T13:24:43;13.90;99.90
15386;DHT22;7791;47.246;9.648;2022-11-11T13:27:17;13.70;99.90
15386;DHT22;7791;47.246;9.648;2022-11-11T13:32:46;13.60;99.90
15386;DHT22;7791;47.246;9.648;2022-11-11T13:35:20;13.50;99.90
15386;DHT22;7791;47.246;9.648;2022-11-11T13:37:47;13.30;99.90
15386;DHT22;7791;47.246;9.648;2022-11-11T13:40:30;13.30;99.90
15386;DHT22;7791;47.246;9.648;2022-11-11T13:42:58;13.40;99.90
15386;DHT22;7791;47.246;9.648;2022-11-11T13:45:27;13.40;99.90
15386;DHT22;7791;47.246;9.648;2022-11-11T13:47:55;13.30;99.90
15386;DHT22;7791;47.246;9.648;2022-11-11T13:50:25;13.20;99.90
15386;DHT22;7791;47.246;9.648;2022-11-11T13:52:56;13.10;99.90
15386;DHT22;7791;47.246;9.648;2022-11-11T13:55:28;13.00;99.90
15386;DHT22;7791;47.246;9.648;2022-11-11T13:57:57;12.90;99.90
15386;DHT22;7791;47.246;9.648;2022-11-11T14:00:32;12.80;99.90
15386;DHT22;7791;47.246;9.648;2022-11-11T14:03:32;12.60;99.90
15386;DHT22;7791;47.246;9.648;2022-11-11T14:06:36;12.50;99.90
15386;DHT22;7791;47.246;9.648;2022-11-11T14:09:02;12.30;99.90
15386;DHT22;7791;47.246;9.648;2022-11-11T14:11:33;12.20;99.90
15386;DHT22;7791;47.246;9.648;2022-11-11T14:17:12;12.20;99.90
15386;DHT22;7791;47.246;9.648;2022-11-11T14:19:38;12.10;99.90
15386;DHT22;7791;47.246;9.648;2022-11-11T14:22:27;12.00;99.90
15386;DHT22;7791;47.246;9.648;2022-11-11T14:24:53;11.90;99.90
15386;DHT22;7791;47.246;9.648;2022-11-11T14:27:28;11.70;99.90
15386;DHT22;7791;47.246;9.648;2022-11-11T14:29:56;11.60;99.90
15386;DHT22;7791;47.246;9.648;2022-11-11T14:32:45;11.60;99.90
15386;DHT22;7791;47.246;9.648;2022-11-11T14:35:24;11.60;99.90
15386;DHT22;7791;47.246;9.648;2022-11-11T14:40:45;11.60;99.90
15386;DHT22;7791;47.246;9.648;2022-11-11T14:43:34;11.60;99.90
15386;DHT22;7791;47.246;9.648;2022-11-11T14:46:11;11.60;99.90
15386;DHT22;7791;47.246;9.648;2022-11-11T14:48:54;11.50;99.90
15386;DHT22;7791;47.246;9.648;2022-11-11T14:51:48;11.50;99.90
15386;DHT22;7791;47.246;9.648;2022-11-11T14:54:20;11.30;99.90
15386;DHT22;7791;47.246;9.648;2022-11-11T14:56:54;11.30;99.90
15386;DHT22;7791;47.246;9.648;2022-11-11T14:59:22;11.20;99.90
15386;DHT22;7791;47.246;9.648;2022-11-11T15:01:52;11.00;99.90
15386;DHT22;7791;47.246;9.648;2022-11-11T15:04:18;11.00;99.90
15386;DHT22;7791;47.246;9.648;2022-11-11T15:06:48;10.90;99.90
15386;DHT22;7791;47.246;9.648;2022-11-11T15:12:10;10.70;99.90
15386;DHT22;7791;47.246;9.648;2022-11-11T15:14:42;10.60;99.90
15386;DHT22;7791;47.246;9.648;2022-11-11T15:17:21;10.50;99.90
15386;DHT22;7791;47.246;9.648;2022-11-11T15:19:59;10.40;99.90
15386;DHT22;7791;47.246;9.648;2022-11-11T15:22:44;10.30;99.90
15386;DHT22;7791;47.246;9.648;2022-11-11T15:25:21;10.20;99.90
15386;DHT22;7791;47.246;9.648;2022-11-11T15:27:54;10.20;99.90
15386;DHT22;7791;47.246;9.648;2022-11-11T15:30:21;10.20;99.90
15386;DHT22;7791;47.246;9.648;2022-11-11T15:33:08;10.20;99.90
15386;DHT22;7791;47.246;9.648;2022-11-11T15:35:41;10.10;99.90
15386;DHT22;7791;47.246;9.648;2022-11-11T15:38:12;10.00;99.90
15386;DHT22;7791;47.246;9.648;2022-11-11T15:40:44;9.80;99.90
15386;DHT22;7791;47.246;9.648;2022-11-11T15:43:14;9.70;99.90
15386;DHT22;7791;47.246;9.648;2022-11-11T15:45:41;9.50;99.90
15386;DHT22;7791;47.246;9.648;2022-11-11T15:48:16;9.30;99.90
15386;DHT22;7791;47.246;9.648;2022-11-11T15:50:43;9.10;99.90
15386;DHT22;7791;47.246;9.648;2022-11-11T15:53:11;8.90;99.90
15386;DHT22;7791;47.246;9.648;2022-11-11T15:55:37;8.80;99.90
15386;DHT22;7791;47.246;9.648;2022-11-11T15:58:10;8.70;99.90
15386;DHT22;7791;47.246;9.648;2022-11-11T16:00:39;8.50;99.90
15386;DHT22;7791;47.246;9.648;2022-11-11T16:03:14;8.30;99.90
15386;DHT22;7791;47.246;9.648;2022-11-11T16:05:42;8.20;99.90
15386;DHT22;7791;47.246;9.648;2022-11-11T16:08:14;8.00;99.90
15386;DHT22;7791;47.246;9.648;2022-11-11T16:10:41;7.90;99.90
15386;DHT22;7791;47.246;9.648;2022-11-11T16:13:13;7.80;99.90
15386;DHT22;7791;47.246;9.648;2022-11-11T16:15:44;7.70;99.90
15386;DHT22;7791;47.246;9.648;2022-11-11T16:18:16;7.60;99.90
15386;DHT22;7791;47.246;9.648;2022-11-11T16:20:47;7.50;99.90
15386;DHT22;7791;47.246;9.648;2022-11-11T16:23:16;7.40;99.90
15386;DHT22;7791;47.246;9.648;2022-11-11T16:25:42;7.30;99.90
15386;DHT22;7791;47.246;9.648;2022-11-11T16:28:10;7.20;99.90